New Richmond, Wisconsin
Current Conditions -  °F | °C
As of 3:15 AM on Friday 31 Oct 2014 (Local Time) from KRNH Reporting Station
Clear Clear  
Wind Chill: 15°   Ceiling: Unl
Heat Index: 28°   Visibility: 10mi
Dew Point: 18°   Wind: 16mph
Humidity: 66%   Direction: 350°N
Pressure: 30.41"   Gusts: 20mph
Location:  45.12°N, 92.54°W
Report Text: KRNH 310815Z AUTO 35014G17KT 10SM CLR M02/M08 A3041 RMK AO2 T10251080
Loading
Personal Weather Stations






























Interactive Weather Map
Tropical Storm Tracking
New forecast layout! Learn more

10-Day Weather Forecast

Advertisements
Track Severe Weather on mobile